createdAt,value
2022-10-18T00:00:58.454Z,8.40
2022-10-18T00:03:28.793Z,10.43
2022-10-18T00:05:59.695Z,12.95
2022-10-18T00:08:32.763Z,8.18
2022-10-18T00:11:02.853Z,7.78
2022-10-18T00:13:33.128Z,9.07
2022-10-18T00:16:07.405Z,9.52
2022-10-18T00:18:50.685Z,10.00
2022-10-18T00:21:23.756Z,12.02
2022-10-18T00:24:01.935Z,10.57
2022-10-18T00:26:33.988Z,9.40
2022-10-18T00:29:07.305Z,11.50
2022-10-18T00:31:42.324Z,11.60
2022-10-18T00:34:18.737Z,11.75
2022-10-18T00:36:51.656Z,11.77
2022-10-18T00:39:34.846Z,12.15
2022-10-18T00:42:05.473Z,12.75
2022-10-18T00:45:09.718Z,12.70
2022-10-18T00:47:40.145Z,11.88
2022-10-18T00:50:14.329Z,12.63
2022-10-18T00:52:49.745Z,13.57
2022-10-18T00:55:23.280Z,12.45
2022-10-18T00:57:57.818Z,12.73
2022-10-18T01:00:28.086Z,13.48
2022-10-18T01:02:58.779Z,13.38
2022-10-18T01:05:31.987Z,14.00
2022-10-18T01:08:29.556Z,14.65
2022-10-18T01:11:28.191Z,12.68
2022-10-18T01:14:17.517Z,15.88
2022-10-18T01:16:56.619Z,12.65
2022-10-18T01:19:54.759Z,14.75
2022-10-18T01:22:33.616Z,15.23
2022-10-18T01:25:19.008Z,15.07
2022-10-18T01:28:07.620Z,14.50
2022-10-18T01:30:58.982Z,14.43
2022-10-18T01:33:45.564Z,16.92
2022-10-18T01:36:23.940Z,16.00
2022-10-18T01:39:01.680Z,15.20
2022-10-18T01:41:32.886Z,16.25
2022-10-18T01:44:12.207Z,15.48
2022-10-18T01:46:56.070Z,15.85
2022-10-18T01:49:29.848Z,15.32
2022-10-18T01:52:03.187Z,17.35
2022-10-18T01:54:39.140Z,15.20
2022-10-18T01:57:17.697Z,15.35
2022-10-18T02:00:01.164Z,15.95
2022-10-18T02:02:53.881Z,17.23
2022-10-18T02:05:35.606Z,17.58
2022-10-18T02:08:23.138Z,17.63
2022-10-18T02:10:59.527Z,14.23
2022-10-18T02:13:36.625Z,12.85
2022-10-18T02:16:13.198Z,14.23
2022-10-18T02:18:52.966Z,15.40
2022-10-18T02:21:25.254Z,17.23
2022-10-18T02:23:57.005Z,16.35
2022-10-18T02:26:27.949Z,16.00
2022-10-18T02:28:59.197Z,15.98
2022-10-18T02:31:34.478Z,15.88
2022-10-18T02:34:16.854Z,18.15
2022-10-18T02:36:53.105Z,15.50
2022-10-18T02:39:31.288Z,16.35
2022-10-18T02:42:02.080Z,15.93
2022-10-18T02:44:42.093Z,16.92
2022-10-18T02:47:15.095Z,16.15
2022-10-18T02:49:47.759Z,15.15
2022-10-18T02:52:17.831Z,15.20
2022-10-18T02:54:47.869Z,15.50
2022-10-18T02:57:21.011Z,17.25
2022-10-18T02:59:51.089Z,14.55
2022-10-18T03:02:21.247Z,16.55
2022-10-18T03:05:01.418Z,16.40
2022-10-18T03:07:32.001Z,16.52
2022-10-18T03:10:05.044Z,17.25
2022-10-18T03:12:37.595Z,18.17
2022-10-18T03:15:09.149Z,16.30
2022-10-18T03:17:39.251Z,18.88
2022-10-18T03:20:14.031Z,15.60
2022-10-18T03:22:47.096Z,15.45
2022-10-18T03:25:20.435Z,14.70
2022-10-18T03:27:50.598Z,13.40
2022-10-18T03:30:20.936Z,12.02
2022-10-18T03:32:50.994Z,9.65
2022-10-18T03:35:24.334Z,8.68
2022-10-18T03:37:56.893Z,6.68
2022-10-18T03:40:27.031Z,7.25
2022-10-18T03:42:57.060Z,7.43
2022-10-18T03:45:31.202Z,8.38
2022-10-18T03:48:04.358Z,6.93
2022-10-18T03:50:37.124Z,7.15
2022-10-18T03:53:09.687Z,7.85
2022-10-18T03:55:40.972Z,8.48
2022-10-18T03:58:21.731Z,9.15
2022-10-18T04:00:53.626Z,9.23
2022-10-18T04:03:25.786Z,10.80
2022-10-18T04:06:00.880Z,10.65
2022-10-18T04:08:33.746Z,9.32
2022-10-18T04:11:11.136Z,11.25
2022-10-18T04:13:41.537Z,10.77
2022-10-18T04:16:14.631Z,10.35
2022-10-18T04:18:55.976Z,11.52
2022-10-18T04:21:28.694Z,10.95
2022-10-18T04:23:58.873Z,12.38
2022-10-18T04:26:34.961Z,12.88
2022-10-18T04:29:05.170Z,12.68
2022-10-18T04:31:35.296Z,13.60
2022-10-18T04:34:06.249Z,14.77
2022-10-18T04:36:39.106Z,13.95
2022-10-18T04:39:09.204Z,14.35
2022-10-18T04:41:39.219Z,12.95
2022-10-18T04:44:16.387Z,15.73
2022-10-18T04:46:46.525Z,14.40
2022-10-18T04:49:16.714Z,14.85
2022-10-18T04:51:49.378Z,14.18
2022-10-18T04:54:20.390Z,14.77
2022-10-18T04:56:52.024Z,15.35
2022-10-18T04:59:22.290Z,15.88
2022-10-18T05:01:52.580Z,15.95
2022-10-18T05:04:28.719Z,15.77
2022-10-18T05:07:06.664Z,17.75
2022-10-18T05:09:39.916Z,16.17
2022-10-18T05:12:12.412Z,15.85
2022-10-18T05:14:42.481Z,19.45
2022-10-18T05:17:12.611Z,20.08
2022-10-18T05:19:42.715Z,18.98
2022-10-18T05:22:15.307Z,19.38
2022-10-18T05:24:45.423Z,18.23
2022-10-18T05:27:15.455Z,20.10
2022-10-18T05:29:46.075Z,16.30
2022-10-18T05:32:16.254Z,16.90
2022-10-18T05:34:46.300Z,17.15
2022-10-18T05:37:18.986Z,18.35
2022-10-18T05:39:52.229Z,20.42
2022-10-18T05:42:27.221Z,20.40
2022-10-18T05:44:57.330Z,18.88
2022-10-18T05:47:37.986Z,17.67
2022-10-18T05:50:08.843Z,17.13
2022-10-18T05:52:41.530Z,17.67
2022-10-18T05:55:12.210Z,19.00
2022-10-18T05:57:42.248Z,18.17
2022-10-18T06:00:15.217Z,20.55
2022-10-18T06:02:45.305Z,19.95
2022-10-18T06:05:15.443Z,24.05
2022-10-18T06:07:48.105Z,19.20
2022-10-18T06:10:20.723Z,20.30
2022-10-18T06:12:53.063Z,18.30
2022-10-18T06:15:23.192Z,16.35
2022-10-18T06:18:03.733Z,16.40
2022-10-18T06:20:33.844Z,13.82
2022-10-18T06:23:06.628Z,16.15
2022-10-18T06:25:39.059Z,14.40
2022-10-18T06:28:11.528Z,14.05
2022-10-18T06:30:42.412Z,13.77
2022-10-18T06:33:14.697Z,12.90
2022-10-18T06:35:57.136Z,17.02
2022-10-18T06:38:30.265Z,15.35
2022-10-18T06:41:01.779Z,15.10
2022-10-18T06:43:32.056Z,16.40
2022-10-18T06:46:07.789Z,15.63
2022-10-18T06:48:44.945Z,15.73
2022-10-18T06:51:15.514Z,11.93
2022-10-18T06:54:12.974Z,14.35
2022-10-18T06:56:52.857Z,14.55
2022-10-18T06:59:24.360Z,14.57
2022-10-18T07:01:56.553Z,15.20
2022-10-18T07:04:26.703Z,12.95
2022-10-18T07:06:57.544Z,15.18
2022-10-18T07:09:33.455Z,12.98
2022-10-18T07:12:03.568Z,17.17
2022-10-18T07:14:35.880Z,15.70
2022-10-18T07:17:08.259Z,17.67
2022-10-18T07:19:38.341Z,18.77
2022-10-18T07:22:08.442Z,15.80
2022-10-18T07:24:41.139Z,19.30
2022-10-18T07:27:16.749Z,20.98
2022-10-18T07:29:46.849Z,18.15
2022-10-18T07:32:24.573Z,22.90
2022-10-18T07:34:54.765Z,20.58
2022-10-18T07:37:27.852Z,21.00
2022-10-18T07:40:02.864Z,17.52
2022-10-18T07:42:32.952Z,22.70
2022-10-18T07:45:03.031Z,18.80
2022-10-18T07:47:35.214Z,20.05
2022-10-18T07:50:05.635Z,21.48
2022-10-18T07:52:46.480Z,22.45
2022-10-18T07:55:19.240Z,19.92
2022-10-18T07:57:49.295Z,20.23
2022-10-18T08:00:25.306Z,19.17
2022-10-18T08:02:59.696Z,18.80
2022-10-18T08:08:23.589Z,18.42
2022-10-18T08:10:56.551Z,21.33
2022-10-18T08:13:26.622Z,24.02
2022-10-18T08:16:03.085Z,21.23
2022-10-18T08:18:33.612Z,27.90
2022-10-18T08:21:03.813Z,29.50
2022-10-18T08:23:34.317Z,26.00
2022-10-18T08:26:10.813Z,32.65
2022-10-18T08:28:53.495Z,28.48
2022-10-18T08:31:26.663Z,32.58
2022-10-18T08:33:59.948Z,36.15
2022-10-18T08:36:30.054Z,35.58
2022-10-18T08:39:03.028Z,40.70
2022-10-18T08:42:17.212Z,37.70
2022-10-18T08:44:55.548Z,36.10
2022-10-18T08:47:36.830Z,33.67
2022-10-18T08:50:14.728Z,35.38
2022-10-18T08:52:53.942Z,35.83
2022-10-18T08:55:36.263Z,37.95
2022-10-18T08:58:20.619Z,32.60
2022-10-18T09:01:08.141Z,32.13
2022-10-18T09:04:13.732Z,28.70
2022-10-18T09:06:58.164Z,28.23
2022-10-18T09:09:44.627Z,28.05
2022-10-18T09:12:55.984Z,29.30
2022-10-18T09:15:46.016Z,28.63
2022-10-18T09:18:42.207Z,34.40
2022-10-18T09:21:25.198Z,38.50
2022-10-18T09:24:14.077Z,37.28
2022-10-18T09:26:48.762Z,36.13
2022-10-18T09:29:52.196Z,36.15
2022-10-18T09:32:44.504Z,41.05
2022-10-18T09:35:22.582Z,37.20
2022-10-18T09:38:12.733Z,40.40
2022-10-18T09:40:57.455Z,37.25
2022-10-18T09:43:46.398Z,32.80
2022-10-18T09:46:18.330Z,37.47
2022-10-18T09:49:07.498Z,34.25
2022-10-18T09:51:46.378Z,36.28
2022-10-18T09:54:33.747Z,33.70
2022-10-18T09:57:12.615Z,35.10
2022-10-18T09:59:50.109Z,34.35
2022-10-18T10:02:23.758Z,30.75
2022-10-18T10:04:57.568Z,29.67
2022-10-18T10:07:34.005Z,31.63
2022-10-18T10:10:15.737Z,29.38
2022-10-18T10:12:51.331Z,43.45
2022-10-18T10:15:29.543Z,43.08
2022-10-18T10:18:09.516Z,39.88
2022-10-18T10:20:49.959Z,43.20
2022-10-18T10:23:26.097Z,34.72
2022-10-18T10:25:59.143Z,33.58
2022-10-18T10:28:34.117Z,34.95
2022-10-18T10:31:31.684Z,30.13
2022-10-18T10:34:25.500Z,27.25
2022-10-18T10:36:59.040Z,24.35
2022-10-18T10:39:29.176Z,28.00
2022-10-18T10:42:24.510Z,29.25
2022-10-18T10:45:06.283Z,29.67
2022-10-18T10:47:42.522Z,33.17
2022-10-18T10:50:15.727Z,37.30
2022-10-18T10:52:54.609Z,37.42
2022-10-18T10:55:35.462Z,35.95
2022-10-18T10:58:21.696Z,37.88
2022-10-18T11:00:52.176Z,36.88
2022-10-18T11:03:29.491Z,33.25
2022-10-18T11:06:02.123Z,34.17
2022-10-18T11:11:47.594Z,29.55
2022-10-18T11:14:30.845Z,29.73
2022-10-18T11:17:17.169Z,29.83
2022-10-18T11:20:31.820Z,32.55
2022-10-18T11:23:05.264Z,29.30
2022-10-18T11:26:14.127Z,29.95
2022-10-18T11:29:15.325Z,32.85
2022-10-18T11:31:56.476Z,40.88
2022-10-18T11:34:56.629Z,44.03
2022-10-18T11:37:55.294Z,44.50
2022-10-18T11:40:53.469Z,46.33
2022-10-18T11:43:38.985Z,42.78
2022-10-18T11:46:44.615Z,41.42
2022-10-18T11:49:54.024Z,52.42
2022-10-18T11:52:53.660Z,52.83
2022-10-18T11:55:44.846Z,58.05
2022-10-18T11:58:47.504Z,60.67
2022-10-18T12:01:30.696Z,57.67
2022-10-18T12:04:11.826Z,52.90
2022-10-18T12:06:45.850Z,54.75
2022-10-18T12:09:33.639Z,48.00
2022-10-18T12:12:11.697Z,54.40
2022-10-18T12:14:49.799Z,52.65
2022-10-18T12:17:51.462Z,48.72
2022-10-18T12:20:29.875Z,55.58
2022-10-18T12:23:06.212Z,49.42
2022-10-18T12:25:53.741Z,52.45
2022-10-18T12:28:40.298Z,58.15
2022-10-18T12:31:30.340Z,53.83
2022-10-18T12:34:06.196Z,53.85
2022-10-18T12:37:05.275Z,55.65
2022-10-18T12:39:58.466Z,47.97
2022-10-18T12:42:43.231Z,53.38
2022-10-18T12:45:33.370Z,52.65
2022-10-18T12:48:10.547Z,50.03
2022-10-18T12:50:43.090Z,49.97
2022-10-18T12:53:22.980Z,46.42
2022-10-18T12:55:55.023Z,48.60
2022-10-18T12:58:34.986Z,49.15
2022-10-18T13:01:10.052Z,49.30
2022-10-18T13:04:38.344Z,50.05
2022-10-18T13:07:40.959Z,45.72
2022-10-18T13:10:43.934Z,41.22
2022-10-18T13:13:42.585Z,41.42
2022-10-18T13:16:32.502Z,36.58
2022-10-18T13:19:21.580Z,40.83
2022-10-18T13:22:08.544Z,40.17
2022-10-18T13:24:50.383Z,38.85
2022-10-18T13:27:39.016Z,41.58
2022-10-18T13:30:51.668Z,40.92
2022-10-18T13:33:40.298Z,39.72
2022-10-18T13:36:32.140Z,37.78
2022-10-18T13:39:11.536Z,37.20
2022-10-18T13:42:41.247Z,35.33
2022-10-18T13:45:58.851Z,34.55
2022-10-18T13:49:25.655Z,36.88
2022-10-18T13:52:17.484Z,35.20
2022-10-18T13:55:17.346Z,31.58
2022-10-18T13:58:07.749Z,32.08
2022-10-18T14:01:02.874Z,35.17
2022-10-18T14:04:01.580Z,36.58
2022-10-18T14:06:41.609Z,35.55
2022-10-18T14:12:27.885Z,37.42
2022-10-18T14:15:06.300Z,41.00
2022-10-18T14:17:44.680Z,41.97
2022-10-18T14:20:29.875Z,44.33
2022-10-18T14:23:10.130Z,42.35
2022-10-18T14:25:42.948Z,40.30
2022-10-18T14:28:19.720Z,36.13
2022-10-18T14:30:58.414Z,33.45
2022-10-18T14:33:36.860Z,33.97
2022-10-18T14:36:15.339Z,35.70
2022-10-18T14:38:53.946Z,32.22
2022-10-18T14:41:33.945Z,37.78
2022-10-18T14:44:22.133Z,36.03
2022-10-18T14:46:55.940Z,33.85
2022-10-18T14:49:29.136Z,34.08
2022-10-18T14:52:02.784Z,34.13
2022-10-18T14:54:49.247Z,33.03
2022-10-18T14:57:32.650Z,37.30
2022-10-18T15:00:14.010Z,52.55
2022-10-18T15:02:44.220Z,33.58
2022-10-18T15:05:23.782Z,35.72
2022-10-18T15:07:59.566Z,36.97
2022-10-18T15:10:36.247Z,33.33
2022-10-18T15:13:10.531Z,36.53
2022-10-18T15:15:43.211Z,32.63
2022-10-18T15:18:28.160Z,37.40
2022-10-18T15:21:13.153Z,35.33
2022-10-18T15:23:43.346Z,31.73
2022-10-18T15:26:24.214Z,31.48
2022-10-18T15:29:04.330Z,29.02
2022-10-18T15:31:42.985Z,28.88
2022-10-18T15:34:21.711Z,26.35
2022-10-18T15:36:58.377Z,23.30
2022-10-18T15:39:31.731Z,25.48
2022-10-18T15:42:03.662Z,20.98
2022-10-18T15:44:49.258Z,18.95
2022-10-18T15:47:24.481Z,18.83
2022-10-18T15:50:06.612Z,19.90
2022-10-18T15:52:43.616Z,21.75
2022-10-18T15:55:47.163Z,16.98
2022-10-18T15:58:37.907Z,17.70
2022-10-18T16:01:19.919Z,15.48
2022-10-18T16:03:52.439Z,22.42
2022-10-18T16:06:22.507Z,21.63
2022-10-18T16:08:56.061Z,17.80
2022-10-18T16:11:30.709Z,23.60
2022-10-18T16:14:00.939Z,18.50
2022-10-18T16:16:33.736Z,17.23
2022-10-18T16:19:07.151Z,16.77
2022-10-18T16:21:41.523Z,16.77
2022-10-18T16:24:14.634Z,31.88
2022-10-18T16:26:45.359Z,33.97
2022-10-18T16:29:20.841Z,43.15
2022-10-18T16:31:58.335Z,89.95
2022-10-18T16:34:32.572Z,124.32
2022-10-18T16:37:02.882Z,297.92
2022-10-18T16:39:36.279Z,244.27
2022-10-18T16:42:08.948Z,162.35
2022-10-18T16:44:39.235Z,151.40
2022-10-18T16:47:14.271Z,81.50
2022-10-18T16:49:45.255Z,38.20
2022-10-18T16:52:15.525Z,41.75
2022-10-18T16:54:48.739Z,42.08
2022-10-18T16:57:18.786Z,36.50
2022-10-18T16:59:48.909Z,91.68
2022-10-18T17:02:23.944Z,77.47
2022-10-18T17:04:57.192Z,55.50
2022-10-18T17:07:28.349Z,36.47
2022-10-18T17:09:58.452Z,34.33
2022-10-18T17:12:28.575Z,44.25
2022-10-18T17:15:01.809Z,39.05
2022-10-18T17:17:35.029Z,38.65
2022-10-18T17:20:09.470Z,43.00
2022-10-18T17:22:39.784Z,58.05
2022-10-18T17:25:13.815Z,43.92
2022-10-18T17:27:43.957Z,57.08
2022-10-18T17:30:17.868Z,62.38
2022-10-18T17:32:58.646Z,104.40
2022-10-18T17:35:31.610Z,71.70
2022-10-18T17:38:07.927Z,46.72
2022-10-18T17:40:38.125Z,37.53
2022-10-18T17:43:14.163Z,38.70
2022-10-18T17:45:51.137Z,33.75
2022-10-18T17:48:29.137Z,32.17
2022-10-18T17:51:01.880Z,35.20
2022-10-18T17:53:32.931Z,36.40
2022-10-18T17:56:04.155Z,38.90
2022-10-18T17:58:34.771Z,39.47
2022-10-18T18:01:15.440Z,35.97
2022-10-18T18:03:49.367Z,34.15
2022-10-18T18:06:22.833Z,40.17
2022-10-18T18:08:53.473Z,39.25
2022-10-18T18:11:23.558Z,37.92
2022-10-18T18:13:53.704Z,39.10
2022-10-18T18:16:26.591Z,38.83
2022-10-18T18:19:04.011Z,44.25
2022-10-18T18:21:35.712Z,42.13
2022-10-18T18:24:11.196Z,35.85
2022-10-18T18:26:43.423Z,35.20
2022-10-18T18:29:15.592Z,32.08
2022-10-18T18:31:49.035Z,36.17
2022-10-18T18:34:24.799Z,43.17
2022-10-18T18:36:55.000Z,32.22
2022-10-18T18:39:29.554Z,33.67
2022-10-18T18:42:06.783Z,30.17
2022-10-18T18:44:37.269Z,29.00
2022-10-18T18:47:12.307Z,39.60
2022-10-18T18:49:45.983Z,41.67
2022-10-18T18:52:18.957Z,41.08
2022-10-18T18:54:49.026Z,32.15
2022-10-18T18:57:20.042Z,36.33
2022-10-18T18:59:55.533Z,42.40
2022-10-18T19:02:25.666Z,40.25
2022-10-18T19:05:01.231Z,34.97
2022-10-18T19:07:31.689Z,33.63
2022-10-18T19:10:04.621Z,35.42
2022-10-18T19:12:34.771Z,36.78
2022-10-18T19:15:04.869Z,33.47
2022-10-18T19:17:37.087Z,28.33
2022-10-18T19:20:15.371Z,32.30
2022-10-18T19:22:45.786Z,31.15
2022-10-18T19:25:16.949Z,32.75
2022-10-18T19:27:50.190Z,33.10
2022-10-18T19:30:20.355Z,29.60
2022-10-18T19:32:52.668Z,30.65
2022-10-18T19:35:25.319Z,34.03
2022-10-18T19:37:55.454Z,34.53
2022-10-18T19:40:25.512Z,29.60
2022-10-18T19:43:04.587Z,29.38
2022-10-18T19:45:40.015Z,35.05
2022-10-18T19:48:13.293Z,33.15
2022-10-18T19:50:46.161Z,29.17
2022-10-18T19:53:16.227Z,47.97
2022-10-18T19:55:46.273Z,73.30
2022-10-18T19:58:16.454Z,35.28
2022-10-18T20:00:46.562Z,35.65
2022-10-18T20:03:19.757Z,25.98
2022-10-18T20:05:58.302Z,32.20
2022-10-18T20:08:30.657Z,34.30
2022-10-18T20:11:12.850Z,37.67
2022-10-18T20:13:45.640Z,47.00
2022-10-18T20:16:24.229Z,35.95
2022-10-18T20:19:04.015Z,39.33
2022-10-18T20:21:40.078Z,37.65
2022-10-18T20:24:11.596Z,35.88
2022-10-18T20:26:49.718Z,37.40
2022-10-18T20:29:20.155Z,40.00
2022-10-18T20:31:50.266Z,57.30
2022-10-18T20:34:25.796Z,83.13
2022-10-18T20:36:59.564Z,83.20
2022-10-18T20:39:29.979Z,131.55
2022-10-18T20:42:05.391Z,193.55
2022-10-18T20:44:36.412Z,110.13
2022-10-18T20:47:09.558Z,98.63
2022-10-18T20:49:42.501Z,196.32
2022-10-18T20:52:15.162Z,154.95
2022-10-18T20:54:48.283Z,125.22
2022-10-18T20:57:18.412Z,80.25
2022-10-18T20:59:48.550Z,114.40
2022-10-18T21:02:18.651Z,71.88
2022-10-18T21:04:48.752Z,30.27
2022-10-18T21:07:32.516Z,46.17
2022-10-18T21:10:04.911Z,75.00
2022-10-18T21:12:35.291Z,52.13
2022-10-18T21:15:05.676Z,41.35
2022-10-18T21:17:35.804Z,67.18
2022-10-18T21:20:06.312Z,33.60
2022-10-18T21:22:39.169Z,33.53
2022-10-18T21:25:13.888Z,32.50
2022-10-18T21:27:51.605Z,25.60
2022-10-18T21:30:21.699Z,40.03
2022-10-18T21:32:52.578Z,77.65
2022-10-18T21:35:25.676Z,49.30
2022-10-18T21:37:58.294Z,49.80
2022-10-18T21:40:28.547Z,35.17
2022-10-18T21:42:59.076Z,39.47
2022-10-18T21:45:29.204Z,48.88
2022-10-18T21:48:02.126Z,32.03
2022-10-18T21:50:32.223Z,41.90
2022-10-18T21:53:04.948Z,40.17
2022-10-18T21:55:40.952Z,21.10
2022-10-18T21:58:11.088Z,63.70
2022-10-18T22:00:46.882Z,21.60
2022-10-18T22:03:17.253Z,58.00
2022-10-18T22:05:50.404Z,99.00
2022-10-18T22:08:23.083Z,62.88
2022-10-18T22:10:53.159Z,67.15
2022-10-18T22:13:23.290Z,72.63
2022-10-18T22:15:55.550Z,41.17
2022-10-18T22:18:25.972Z,70.93
2022-10-18T22:21:00.479Z,24.40
2022-10-18T22:23:38.389Z,27.17
2022-10-18T22:26:11.244Z,49.15
2022-10-18T22:28:43.059Z,91.03
2022-10-18T22:31:21.659Z,59.33
2022-10-18T22:33:59.631Z,20.48
2022-10-18T22:36:30.745Z,48.13
2022-10-18T22:39:10.079Z,42.08
2022-10-18T22:41:40.250Z,45.72
2022-10-18T22:44:12.158Z,20.10
2022-10-18T22:46:42.651Z,33.88
2022-10-18T22:49:16.129Z,32.03
2022-10-18T22:51:46.371Z,38.58
2022-10-18T22:54:19.176Z,40.58
2022-10-18T22:56:52.152Z,35.10
2022-10-18T22:59:24.723Z,45.88
2022-10-18T23:01:54.916Z,53.47
2022-10-18T23:04:24.934Z,23.60
2022-10-18T23:06:55.031Z,30.23
2022-10-18T23:09:30.462Z,51.60
2022-10-18T23:12:00.648Z,62.63
2022-10-18T23:14:30.724Z,81.75
2022-10-18T23:17:03.632Z,119.97
2022-10-18T23:19:33.711Z,67.63
2022-10-18T23:22:03.843Z,59.38
2022-10-18T23:24:36.563Z,78.72
2022-10-18T23:27:09.664Z,47.92
2022-10-18T23:29:39.704Z,67.43
2022-10-18T23:32:12.868Z,33.40
2022-10-18T23:34:46.107Z,52.30
2022-10-18T23:37:16.231Z,23.27
2022-10-18T23:39:51.667Z,40.58
2022-10-18T23:42:21.816Z,36.78
2022-10-18T23:44:51.911Z,52.70
2022-10-18T23:47:33.803Z,64.72
2022-10-18T23:50:08.612Z,39.45
2022-10-18T23:52:38.719Z,38.97
2022-10-18T23:55:15.804Z,58.55
2022-10-18T23:57:45.922Z,81.70
